createdAt,value
2019-04-05T00:00:36.834Z,7.73
2019-04-05T00:03:04.376Z,8.00
2019-04-05T00:05:31.708Z,8.47
2019-04-05T00:07:59.078Z,8.20
2019-04-05T00:10:26.366Z,9.20
2019-04-05T00:12:53.904Z,8.10
2019-04-05T00:15:22.125Z,7.60
2019-04-05T00:17:49.333Z,8.40
2019-04-05T00:20:16.755Z,8.63
2019-04-05T00:22:44.032Z,9.27
2019-04-05T00:25:11.568Z,8.40
2019-04-05T00:27:38.880Z,9.83
2019-04-05T00:30:07.139Z,8.10
2019-04-05T00:32:34.626Z,8.10
2019-04-05T00:35:01.956Z,8.20
2019-04-05T00:37:29.341Z,9.10
2019-04-05T00:39:56.566Z,9.40
2019-04-05T00:42:23.806Z,9.00
2019-04-05T00:44:51.294Z,9.23
2019-04-05T00:47:18.600Z,10.20
2019-04-05T00:49:46.044Z,10.70
2019-04-05T00:52:13.303Z,10.90
2019-04-05T00:54:40.681Z,10.30
2019-04-05T00:57:07.971Z,10.50
2019-04-05T00:59:35.249Z,10.33
2019-04-05T01:02:03.007Z,9.70
2019-04-05T01:04:30.522Z,8.90
2019-04-05T01:06:57.738Z,11.03
2019-04-05T01:09:25.031Z,11.00
2019-04-05T01:11:52.428Z,10.07
2019-04-05T01:14:20.602Z,11.37
2019-04-05T01:16:49.092Z,11.83
2019-04-05T01:19:18.265Z,11.40
2019-04-05T01:21:47.301Z,10.20
2019-04-05T01:24:14.924Z,10.47
2019-04-05T01:26:44.186Z,9.97
2019-04-05T01:29:12.296Z,11.20
2019-04-05T01:31:39.757Z,11.53
2019-04-05T01:34:07.035Z,11.17
2019-04-05T01:36:34.297Z,12.00
2019-04-05T01:39:01.740Z,11.67
2019-04-05T01:41:29.257Z,12.53
2019-04-05T01:43:56.554Z,13.33
2019-04-05T01:46:23.827Z,14.17
2019-04-05T01:48:51.173Z,12.10
2019-04-05T01:51:18.647Z,13.63
2019-04-05T01:53:46.478Z,13.43
2019-04-05T01:56:13.756Z,14.20
2019-04-05T01:58:40.972Z,12.70
2019-04-05T02:01:08.216Z,13.30
2019-04-05T02:03:35.664Z,12.10
2019-04-05T02:06:03.002Z,13.23
2019-04-05T02:08:30.264Z,15.40
2019-04-05T02:10:57.990Z,13.20
2019-04-05T02:13:25.752Z,12.63
2019-04-05T02:16:05.352Z,13.33
2019-04-05T02:18:23.069Z,13.30
2019-04-05T02:20:50.348Z,13.60
2019-04-05T02:23:17.566Z,16.83
2019-04-05T02:25:45.018Z,14.87
2019-04-05T02:28:12.245Z,13.50
2019-04-05T02:30:39.664Z,15.27
2019-04-05T02:33:06.891Z,11.90
2019-04-05T02:35:34.222Z,12.27
2019-04-05T02:38:01.430Z,12.80
2019-04-05T02:40:30.016Z,12.67
2019-04-05T02:42:59.411Z,12.60
2019-04-05T02:45:30.317Z,14.07
2019-04-05T02:48:02.457Z,15.03
2019-04-05T02:50:32.780Z,14.07
2019-04-05T02:53:02.900Z,14.10
2019-04-05T02:55:31.273Z,13.40
2019-04-05T02:58:00.335Z,14.87
2019-04-05T03:00:28.290Z,16.00
2019-04-05T03:02:55.944Z,16.43
2019-04-05T03:05:24.245Z,14.80
2019-04-05T03:07:51.670Z,15.90
2019-04-05T03:11:09.009Z,16.43
2019-04-05T03:13:41.219Z,14.90
2019-04-05T03:16:16.189Z,16.30
2019-04-05T03:18:54.097Z,15.07
2019-04-05T03:21:24.820Z,15.53
2019-04-05T03:23:54.746Z,16.30
2019-04-05T03:26:25.273Z,14.90
2019-04-05T03:28:56.104Z,15.20
2019-04-05T03:31:25.494Z,16.13
2019-04-05T03:33:52.657Z,17.33
2019-04-05T03:36:20.181Z,17.93
2019-04-05T03:38:47.877Z,18.63
2019-04-05T03:41:16.064Z,19.03
2019-04-05T03:43:44.187Z,26.20
2019-04-05T03:46:11.684Z,16.43
2019-04-05T03:48:39.221Z,16.40
2019-04-05T03:51:07.594Z,17.30
2019-04-05T03:53:35.413Z,17.30
2019-04-05T03:56:02.931Z,18.50
2019-04-05T03:58:30.138Z,18.30
2019-04-05T04:00:57.353Z,16.83
2019-04-05T04:03:24.561Z,18.50
2019-04-05T04:05:52.087Z,19.30
2019-04-05T04:08:23.216Z,19.73
2019-04-05T04:10:50.822Z,19.00
2019-04-05T04:13:18.623Z,19.33
2019-04-05T04:15:45.879Z,19.60
2019-04-05T04:18:13.237Z,17.17
2019-04-05T04:20:47.529Z,17.80
2019-04-05T04:23:14.905Z,19.03
2019-04-05T04:25:42.650Z,19.07
2019-04-05T04:28:09.992Z,20.00
2019-04-05T04:30:37.532Z,18.87
2019-04-05T04:33:05.641Z,19.57
2019-04-05T04:35:33.671Z,18.30
2019-04-05T04:38:01.304Z,18.57
2019-04-05T04:40:28.807Z,17.90
2019-04-05T04:42:56.649Z,19.20
2019-04-05T04:45:24.082Z,20.80
2019-04-05T04:47:52.821Z,20.13
2019-04-05T04:50:21.286Z,21.40
2019-04-05T04:52:49.072Z,22.37
2019-04-05T04:55:16.512Z,20.03
2019-04-05T04:57:44.397Z,22.93
2019-04-05T05:00:12.302Z,19.90
2019-04-05T05:02:39.894Z,19.30
2019-04-05T05:05:07.914Z,19.90
2019-04-05T05:07:35.625Z,19.37
2019-04-05T05:10:03.655Z,20.93
2019-04-05T05:12:31.162Z,21.20
2019-04-05T05:14:58.431Z,20.40
2019-04-05T05:17:37.729Z,18.93
2019-04-05T05:19:55.352Z,19.20
2019-04-05T05:22:22.914Z,19.60
2019-04-05T05:24:50.396Z,22.07
2019-04-05T05:27:17.725Z,20.67
2019-04-05T05:29:44.980Z,20.73
2019-04-05T05:32:12.405Z,20.33
2019-04-05T05:34:40.281Z,21.57
2019-04-05T05:37:07.889Z,21.03
2019-04-05T05:39:35.103Z,21.30
2019-04-05T05:42:02.597Z,19.87
2019-04-05T05:44:29.985Z,21.17
2019-04-05T05:46:57.253Z,19.50
2019-04-05T05:49:24.523Z,19.70
2019-04-05T05:51:52.632Z,20.27
2019-04-05T05:54:19.886Z,19.20
2019-04-05T05:56:47.152Z,20.80
2019-04-05T05:59:14.516Z,17.97
2019-04-05T06:01:41.776Z,19.20
2019-04-05T06:04:09.099Z,20.00
2019-04-05T06:06:36.472Z,20.30
2019-04-05T06:09:06.574Z,19.50
2019-04-05T06:11:34.179Z,19.70
2019-04-05T06:14:01.393Z,19.17
2019-04-05T06:16:28.607Z,17.90
2019-04-05T06:18:55.844Z,19.07
2019-04-05T06:21:23.056Z,19.10
2019-04-05T06:23:50.332Z,18.27
2019-04-05T06:26:17.633Z,18.53
2019-04-05T06:28:44.898Z,18.33
2019-04-05T06:31:12.481Z,18.97
2019-04-05T06:33:39.828Z,20.27
2019-04-05T06:36:07.232Z,20.30
2019-04-05T06:38:34.453Z,18.50
2019-04-05T06:41:01.825Z,20.17
2019-04-05T06:43:29.057Z,18.97
2019-04-05T06:45:56.407Z,18.80
2019-04-05T06:48:23.926Z,19.80
2019-04-05T06:50:51.137Z,20.67
2019-04-05T06:53:18.404Z,21.37
2019-04-05T06:55:45.770Z,19.10
2019-04-05T06:58:19.552Z,20.47
2019-04-05T07:00:56.123Z,20.57
2019-04-05T07:03:13.677Z,19.83
2019-04-05T07:05:40.829Z,20.33
2019-04-05T07:08:08.297Z,19.27
2019-04-05T07:10:35.735Z,20.20
2019-04-05T07:13:03.503Z,19.13
2019-04-05T07:15:30.956Z,18.77
2019-04-05T07:17:58.381Z,33.00
2019-04-05T07:20:25.714Z,19.87
2019-04-05T07:22:52.914Z,19.33
2019-04-05T07:25:20.143Z,18.50
2019-04-05T07:27:47.559Z,19.30
2019-04-05T07:30:15.440Z,19.57
2019-04-05T07:32:42.676Z,19.30
2019-04-05T07:35:10.000Z,19.33
2019-04-05T07:37:37.770Z,21.17
2019-04-05T07:40:05.989Z,20.23
2019-04-05T07:42:33.371Z,19.37
2019-04-05T07:45:00.696Z,18.93
2019-04-05T07:47:27.935Z,18.33
2019-04-05T07:49:55.240Z,18.63
2019-04-05T07:52:22.499Z,17.70
2019-04-05T07:54:49.712Z,17.93
2019-04-05T07:57:16.962Z,17.07
2019-04-05T07:59:44.232Z,16.20
2019-04-05T08:02:11.522Z,24.13
2019-04-05T08:04:38.759Z,16.17
2019-04-05T08:07:06.588Z,20.03
2019-04-05T08:09:35.922Z,19.90
2019-04-05T08:12:03.463Z,16.90
2019-04-05T08:14:31.021Z,16.80
2019-04-05T08:16:58.353Z,18.10
2019-04-05T08:19:25.556Z,16.63
2019-04-05T08:21:52.765Z,15.53
2019-04-05T08:24:20.124Z,16.53
2019-04-05T08:26:47.420Z,17.13
2019-04-05T08:29:14.698Z,21.47
2019-04-05T08:31:42.102Z,39.33
2019-04-05T08:34:09.293Z,15.47
2019-04-05T08:36:36.502Z,17.10
2019-04-05T08:39:06.187Z,15.63
2019-04-05T08:41:33.612Z,16.57
2019-04-05T08:44:00.965Z,18.90
2019-04-05T08:46:28.189Z,16.13
2019-04-05T08:48:55.384Z,16.23
2019-04-05T08:51:22.593Z,21.13
2019-04-05T08:53:49.936Z,21.80
2019-04-05T08:56:17.180Z,18.93
2019-04-05T08:58:44.416Z,20.27
2019-04-05T09:01:11.836Z,17.40
2019-04-05T09:03:39.066Z,16.77
2019-04-05T09:06:06.507Z,15.53
2019-04-05T09:08:33.721Z,18.43
2019-04-05T09:11:00.983Z,18.40
2019-04-05T09:13:28.313Z,17.37
2019-04-05T09:15:55.672Z,17.00
2019-04-05T09:18:22.880Z,16.67
2019-04-05T09:20:50.204Z,16.40
2019-04-05T09:23:17.484Z,16.93
2019-04-05T09:25:44.709Z,17.20
2019-04-05T09:28:11.959Z,18.80
2019-04-05T09:30:39.698Z,16.50
2019-04-05T09:33:06.972Z,17.73
2019-04-05T09:35:34.306Z,19.27
2019-04-05T09:38:01.645Z,18.07
2019-04-05T09:40:29.069Z,17.87
2019-04-05T09:42:56.339Z,16.53
2019-04-05T09:45:23.776Z,17.07
2019-04-05T09:47:51.045Z,17.90
2019-04-05T09:50:18.680Z,15.00
2019-04-05T09:52:46.000Z,16.73
2019-04-05T09:55:13.526Z,15.20
2019-04-05T09:57:40.805Z,14.90
2019-04-05T10:00:16.320Z,15.00
2019-04-05T10:02:43.749Z,16.07
2019-04-05T10:05:11.011Z,15.50
2019-04-05T10:07:48.749Z,16.10
2019-04-05T10:10:07.445Z,15.97
2019-04-05T10:12:34.785Z,17.07
2019-04-05T10:15:02.251Z,15.40
2019-04-05T10:17:29.569Z,15.80
2019-04-05T10:19:56.793Z,15.50
2019-04-05T10:22:24.133Z,15.33
2019-04-05T10:24:51.482Z,16.87
2019-04-05T10:27:18.705Z,15.93
2019-04-05T10:29:45.998Z,15.23
2019-04-05T10:32:13.368Z,18.40
2019-04-05T10:34:40.637Z,16.53
2019-04-05T10:37:07.905Z,15.77
2019-04-05T10:39:35.094Z,16.80
2019-04-05T10:42:03.905Z,15.00
2019-04-05T10:44:31.580Z,15.80
2019-04-05T10:46:58.815Z,14.10
2019-04-05T10:49:26.049Z,17.77
2019-04-05T10:51:53.415Z,17.30
2019-04-05T10:54:20.917Z,17.17
2019-04-05T10:56:48.317Z,17.10
2019-04-05T10:59:15.625Z,16.20
2019-04-05T11:01:42.877Z,16.43
2019-04-05T11:04:10.161Z,17.50
2019-04-05T11:06:37.440Z,17.30
2019-04-05T11:09:07.161Z,16.70
2019-04-05T11:11:34.421Z,17.70
2019-04-05T11:14:13.164Z,15.80
2019-04-05T11:16:31.146Z,16.10
2019-04-05T11:19:01.913Z,18.90
2019-04-05T11:21:28.152Z,17.17
2019-04-05T11:23:55.772Z,15.30
2019-04-05T11:26:23.680Z,15.60
2019-04-05T11:28:50.909Z,16.83
2019-04-05T11:31:18.304Z,13.93
2019-04-05T11:33:45.542Z,14.80
2019-04-05T11:36:13.713Z,11.63
2019-04-05T11:38:42.216Z,12.37
2019-04-05T11:41:10.148Z,13.47
2019-04-05T11:43:38.492Z,14.90
2019-04-05T11:46:05.832Z,11.33
2019-04-05T11:48:33.900Z,11.10
2019-04-05T11:51:01.301Z,11.00
2019-04-05T11:53:28.540Z,12.50
2019-04-05T11:55:55.786Z,11.93
2019-04-05T11:58:23.026Z,9.80
2019-04-05T12:01:09.361Z,11.00
2019-04-05T12:03:37.370Z,10.53
2019-04-05T12:06:04.772Z,11.60
2019-04-05T12:08:31.988Z,9.57
2019-04-05T12:10:59.501Z,10.50
2019-04-05T12:13:26.724Z,10.17
2019-04-05T12:15:54.067Z,10.97
2019-04-05T12:18:21.297Z,10.70
2019-04-05T12:20:58.944Z,12.37
2019-04-05T12:23:17.661Z,10.47
2019-04-05T12:25:44.998Z,12.00
2019-04-05T12:28:12.223Z,9.70
2019-04-05T12:30:40.249Z,10.77
2019-04-05T12:33:13.914Z,9.43
2019-04-05T12:35:37.720Z,9.20
2019-04-05T12:38:06.932Z,8.63
2019-04-05T12:40:34.273Z,8.53
2019-04-05T12:43:01.525Z,9.00
2019-04-05T12:45:29.093Z,8.20
2019-04-05T12:47:58.977Z,8.03
2019-04-05T12:50:25.464Z,8.80
2019-04-05T12:52:56.483Z,8.30
2019-04-05T12:55:24.084Z,6.90
2019-04-05T12:57:51.165Z,7.80
2019-04-05T13:00:19.793Z,7.73
2019-04-05T13:02:49.782Z,6.80
2019-04-05T13:05:16.296Z,6.40
2019-04-05T13:07:43.641Z,7.40
2019-04-05T13:10:11.159Z,7.90
2019-04-05T13:12:38.496Z,9.07
2019-04-05T13:15:12.840Z,7.77
2019-04-05T13:17:36.693Z,9.87
2019-04-05T13:20:04.510Z,8.13
2019-04-05T13:22:32.920Z,8.30
2019-04-05T13:25:00.676Z,10.73
2019-04-05T13:27:27.993Z,10.57
2019-04-05T13:29:55.593Z,10.03
2019-04-05T13:32:22.850Z,9.57
2019-04-05T13:34:50.405Z,10.17
2019-04-05T13:37:20.469Z,10.57
2019-04-05T13:39:47.220Z,9.80
2019-04-05T13:42:14.422Z,10.70
2019-04-05T13:44:41.676Z,10.87
2019-04-05T13:47:09.141Z,10.50
2019-04-05T13:49:38.566Z,10.17
2019-04-05T13:52:06.920Z,9.60
2019-04-05T13:54:34.359Z,9.97
2019-04-05T13:57:01.708Z,10.43
2019-04-05T13:59:29.071Z,10.43
2019-04-05T14:02:06.092Z,11.37
2019-04-05T14:04:25.721Z,10.70
2019-04-05T14:06:53.595Z,11.43
2019-04-05T14:09:21.755Z,11.90
2019-04-05T14:11:49.172Z,12.00
2019-04-05T14:14:16.669Z,12.37
2019-04-05T14:16:44.065Z,12.30
2019-04-05T14:19:11.316Z,12.53
2019-04-05T14:21:41.155Z,12.03
2019-04-05T14:24:07.927Z,10.57
2019-04-05T14:26:35.162Z,10.27
2019-04-05T14:29:03.730Z,9.73
2019-04-05T14:31:32.160Z,9.33
2019-04-05T14:33:59.673Z,10.73
2019-04-05T14:36:26.993Z,8.50
2019-04-05T14:38:54.354Z,7.90
2019-04-05T14:41:21.665Z,9.30
2019-04-05T14:43:48.909Z,7.63
2019-04-05T14:46:16.223Z,6.40
2019-04-05T14:48:43.465Z,5.90
2019-04-05T14:51:10.699Z,6.17
2019-04-05T14:53:38.225Z,6.47
2019-04-05T14:56:05.421Z,6.57
2019-04-05T14:58:32.916Z,6.53
2019-04-05T15:01:02.005Z,6.57
2019-04-05T15:03:29.349Z,6.73
2019-04-05T15:05:58.466Z,7.03
2019-04-05T15:08:25.721Z,6.80
2019-04-05T15:10:56.550Z,6.60
2019-04-05T15:13:22.092Z,6.47
2019-04-05T15:15:49.359Z,6.13
2019-04-05T15:18:19.456Z,6.90
2019-04-05T15:20:46.151Z,7.73
2019-04-05T15:23:14.043Z,7.83
2019-04-05T15:25:42.024Z,7.20
2019-04-05T15:28:09.227Z,7.07
2019-04-05T15:30:36.480Z,8.40
2019-04-05T15:33:05.107Z,8.93
2019-04-05T15:35:32.474Z,8.57
2019-04-05T15:38:02.062Z,9.63
2019-04-05T15:40:31.065Z,10.03
2019-04-05T15:42:58.348Z,9.93
2019-04-05T15:45:25.812Z,9.97
2019-04-05T15:47:53.525Z,10.97
2019-04-05T15:50:22.034Z,11.40
2019-04-05T15:52:49.775Z,9.50
2019-04-05T15:55:17.260Z,12.00
2019-04-05T15:57:44.657Z,10.60
2019-04-05T16:00:15.487Z,10.37
2019-04-05T16:02:43.158Z,10.40
2019-04-05T16:05:10.828Z,11.20
2019-04-05T16:07:38.101Z,10.40
2019-04-05T16:10:06.157Z,9.70
2019-04-05T16:12:33.436Z,10.80
2019-04-05T16:15:00.773Z,10.87
2019-04-05T16:17:28.218Z,10.30
2019-04-05T16:19:55.751Z,10.60
2019-04-05T16:22:31.108Z,10.10
2019-04-05T16:24:52.505Z,11.47
2019-04-05T16:27:19.789Z,11.40
2019-04-05T16:29:47.066Z,10.83
2019-04-05T16:32:14.386Z,11.30
2019-04-05T16:34:41.621Z,11.60
2019-04-05T16:37:08.898Z,10.47
2019-04-05T16:39:36.234Z,10.93
2019-04-05T16:42:03.708Z,11.33
2019-04-05T16:44:31.138Z,11.13
2019-04-05T16:46:58.436Z,10.73
2019-04-05T16:49:25.756Z,11.20
2019-04-05T16:51:53.024Z,10.13
2019-04-05T16:54:20.358Z,11.30
2019-04-05T16:56:47.630Z,10.90
2019-04-05T16:59:14.886Z,11.37
2019-04-05T17:01:42.264Z,11.57
2019-04-05T17:04:09.585Z,10.67
2019-04-05T17:06:38.994Z,10.37
2019-04-05T17:09:07.771Z,12.87
2019-04-05T17:11:35.225Z,11.90
2019-04-05T17:14:02.608Z,12.30
2019-04-05T17:16:29.844Z,11.73
2019-04-05T17:18:57.197Z,12.60
2019-04-05T17:21:24.661Z,13.70
2019-04-05T17:23:51.907Z,13.10
2019-04-05T17:26:19.359Z,17.30
2019-04-05T17:28:46.627Z,12.60
2019-04-05T17:31:13.985Z,13.50
2019-04-05T17:33:41.337Z,14.73
2019-04-05T17:36:08.583Z,25.03
2019-04-05T17:38:35.821Z,12.90
2019-04-05T17:41:04.298Z,15.47
2019-04-05T17:43:31.676Z,12.67
2019-04-05T17:45:58.909Z,11.20
2019-04-05T17:48:26.306Z,11.83
2019-04-05T17:50:53.626Z,13.00
2019-04-05T17:53:20.884Z,12.93
2019-04-05T17:55:48.239Z,13.50
2019-04-05T17:58:17.909Z,11.87
2019-04-05T18:00:45.862Z,12.97
2019-04-05T18:03:13.522Z,11.63
2019-04-05T18:05:40.840Z,10.80
2019-04-05T18:08:08.375Z,10.13
2019-04-05T18:10:35.779Z,10.63
2019-04-05T18:13:03.016Z,11.03
2019-04-05T18:15:30.391Z,9.33
2019-04-05T18:17:57.773Z,11.60
2019-04-05T18:20:25.004Z,11.13
2019-04-05T18:22:52.395Z,10.10
2019-04-05T18:25:20.053Z,10.00
2019-04-05T18:27:48.378Z,10.87
2019-04-05T18:30:17.604Z,11.33
2019-04-05T18:32:45.661Z,10.43
2019-04-05T18:35:13.051Z,7.53
2019-04-05T18:37:40.527Z,8.20
2019-04-05T18:40:07.963Z,7.67
2019-04-05T18:42:35.555Z,7.90
2019-04-05T18:45:03.241Z,8.97
2019-04-05T18:47:31.266Z,10.50
2019-04-05T18:50:03.128Z,9.17
2019-04-05T18:52:28.752Z,8.97
2019-04-05T18:54:56.587Z,9.17
2019-04-05T18:57:24.052Z,10.03
2019-04-05T18:59:51.428Z,10.93
2019-04-05T19:02:18.783Z,11.30
2019-04-05T19:04:46.264Z,11.97
2019-04-05T19:07:13.753Z,11.70
2019-04-05T19:09:41.273Z,12.00
2019-04-05T19:12:08.692Z,11.80
2019-04-05T19:14:35.927Z,11.80
2019-04-05T19:17:03.201Z,11.10
2019-04-05T19:19:30.626Z,11.50
2019-04-05T19:21:57.908Z,10.90
2019-04-05T19:24:25.245Z,11.67
2019-04-05T19:26:52.736Z,11.30
2019-04-05T19:29:20.197Z,12.30
2019-04-05T19:49:14.006Z,13.03
2019-04-05T19:51:41.327Z,12.53
2019-04-05T19:54:08.674Z,13.40
2019-04-05T19:56:35.949Z,38.70
2019-04-05T19:59:03.228Z,19.73
2019-04-05T20:01:30.529Z,15.40
2019-04-05T20:03:57.912Z,16.67
2019-04-05T20:06:25.373Z,11.87
2019-04-05T20:08:52.792Z,15.50
2019-04-05T20:11:20.060Z,11.73
2019-04-05T20:13:47.312Z,11.77
2019-04-05T20:16:14.576Z,11.17
2019-04-05T20:18:41.797Z,11.87
2019-04-05T20:21:09.069Z,11.60
2019-04-05T20:23:42.986Z,10.90
2019-04-05T20:26:05.808Z,11.70
2019-04-05T20:28:33.045Z,12.17
2019-04-05T20:31:00.284Z,10.33
2019-04-05T20:33:27.732Z,11.00
2019-04-05T20:35:54.944Z,10.77
2019-04-05T20:38:22.285Z,10.60
2019-04-05T20:40:49.747Z,10.33
2019-04-05T20:43:17.101Z,10.70
2019-04-05T20:45:44.503Z,10.60
2019-04-05T20:48:11.951Z,9.40
2019-04-05T20:50:39.291Z,10.00
2019-04-05T20:53:06.517Z,11.93
2019-04-05T20:55:34.208Z,9.87
2019-04-05T20:58:01.445Z,9.70
2019-04-05T21:00:28.794Z,10.37
2019-04-05T21:02:56.124Z,10.97
2019-04-05T21:05:25.548Z,10.57
2019-04-05T21:07:52.660Z,10.30
2019-04-05T21:10:20.000Z,10.80
2019-04-05T21:12:47.525Z,9.13
2019-04-05T21:15:14.982Z,10.50
2019-04-05T21:17:42.180Z,10.40
2019-04-05T21:20:09.784Z,10.93
2019-04-05T21:22:37.036Z,11.27
2019-04-05T21:25:05.018Z,10.90
2019-04-05T21:27:32.392Z,10.33
2019-04-05T21:29:59.794Z,10.20
2019-04-05T21:32:27.032Z,9.57
2019-04-05T21:34:54.272Z,11.50
2019-04-05T21:37:21.512Z,11.10
2019-04-05T21:39:48.718Z,11.10
2019-04-05T21:42:15.960Z,9.10
2019-04-05T21:44:43.193Z,12.03
2019-04-05T21:47:11.454Z,10.17
2019-04-05T21:49:38.636Z,11.20
2019-04-05T21:52:05.873Z,10.90
2019-04-05T21:54:33.188Z,11.27
2019-04-05T21:57:00.439Z,11.47
2019-04-05T21:59:27.681Z,11.40
2019-04-05T22:01:55.409Z,12.10
2019-04-05T22:04:22.629Z,11.67
2019-04-05T22:06:49.958Z,11.43
2019-04-05T22:09:17.162Z,12.97
2019-04-05T22:11:44.412Z,12.17
2019-04-05T22:14:11.644Z,11.00
2019-04-05T22:16:38.877Z,12.57
2019-04-05T22:19:06.093Z,15.00
2019-04-05T22:21:33.358Z,12.80
2019-04-05T22:24:00.562Z,12.53
2019-04-05T22:26:27.908Z,12.80
2019-04-05T22:28:55.271Z,13.20
2019-04-05T22:31:22.647Z,13.90
2019-04-05T22:33:50.001Z,13.60
2019-04-05T22:36:17.351Z,12.80
2019-04-05T22:38:44.652Z,14.40
2019-04-05T22:41:12.084Z,13.00
2019-04-05T22:43:39.524Z,14.37
2019-04-05T22:46:07.118Z,14.43
2019-04-05T22:48:35.305Z,15.17
2019-04-05T22:51:02.561Z,13.97
2019-04-05T22:53:29.792Z,15.83
2019-04-05T22:55:57.148Z,13.20
2019-04-05T22:58:24.634Z,13.67
2019-04-05T23:00:51.888Z,13.33
2019-04-05T23:03:19.266Z,14.97
2019-04-05T23:05:46.525Z,14.27
2019-04-05T23:08:13.755Z,13.60
2019-04-05T23:10:41.016Z,12.53
2019-04-05T23:13:08.364Z,13.60
2019-04-05T23:15:35.680Z,13.07
2019-04-05T23:18:03.141Z,14.67
2019-04-05T23:20:30.453Z,13.67
2019-04-05T23:22:57.781Z,13.93
2019-04-05T23:25:25.044Z,14.40
2019-04-05T23:27:52.271Z,14.47
2019-04-05T23:30:20.605Z,15.53
2019-04-05T23:32:47.940Z,15.50
2019-04-05T23:35:15.196Z,16.17
2019-04-05T23:37:42.549Z,16.00
2019-04-05T23:40:09.962Z,16.57
2019-04-05T23:42:37.329Z,16.20
2019-04-05T23:45:04.808Z,15.63
2019-04-05T23:47:32.337Z,16.43
2019-04-05T23:50:00.624Z,17.10
2019-04-05T23:52:27.940Z,17.00
2019-04-05T23:54:55.154Z,16.73
2019-04-05T23:57:22.367Z,16.40
2019-04-05T23:59:49.620Z,16.13
